sensor_id;sensor_type;location;lat;lon;timestamp;pressure;altitude;pressure_sealevel;temperature;humidity
51083;BME280;37131;42.694;23.350;2023-08-12T00:01:23;96021.31;;;17.69;78.67
51083;BME280;37131;42.694;23.350;2023-08-12T00:03:50;96014.97;;;17.70;79.91
51083;BME280;37131;42.694;23.350;2023-08-12T00:06:15;96016.38;;;17.50;80.35
51083;BME280;37131;42.694;23.350;2023-08-12T00:08:41;96019.25;;;17.49;81.62
51083;BME280;37131;42.694;23.350;2023-08-12T00:11:06;96021.06;;;17.21;82.93
51083;BME280;37131;42.694;23.350;2023-08-12T00:13:31;96017.34;;;17.39;82.80
51083;BME280;37131;42.694;23.350;2023-08-12T00:15:57;96022.59;;;17.39;83.76
51083;BME280;37131;42.694;23.350;2023-08-12T00:18:22;96013.41;;;17.19;83.67
51083;BME280;37131;42.694;23.350;2023-08-12T00:20:48;96014.50;;;16.96;85.36
51083;BME280;37131;42.694;23.350;2023-08-12T00:23:13;96011.84;;;16.96;86.39
51083;BME280;37131;42.694;23.350;2023-08-12T00:25:39;96015.75;;;17.16;83.86
51083;BME280;37131;42.694;23.350;2023-08-12T00:28:04;96011.91;;;17.01;85.65
51083;BME280;37131;42.694;23.350;2023-08-12T00:30:30;96009.88;;;17.09;85.33
51083;BME280;37131;42.694;23.350;2023-08-12T00:32:55;96016.34;;;16.79;86.59
51083;BME280;37131;42.694;23.350;2023-08-12T00:35:20;96014.66;;;16.90;87.26
51083;BME280;37131;42.694;23.350;2023-08-12T00:37:46;96011.50;;;16.71;87.26
51083;BME280;37131;42.694;23.350;2023-08-12T00:40:13;96009.56;;;16.83;86.59
51083;BME280;37131;42.694;23.350;2023-08-12T00:42:38;95999.19;;;16.93;84.97
51083;BME280;37131;42.694;23.350;2023-08-12T00:45:09;96004.13;;;17.12;83.01
51083;BME280;37131;42.694;23.350;2023-08-12T00:47:35;95986.16;;;16.87;82.32
51083;BME280;37131;42.694;23.350;2023-08-12T00:50:01;96011.38;;;16.99;83.52
51083;BME280;37131;42.694;23.350;2023-08-12T00:52:27;95974.13;;;16.52;84.17
51083;BME280;37131;42.694;23.350;2023-08-12T00:54:53;95978.22;;;16.42;85.49
51083;BME280;37131;42.694;23.350;2023-08-12T00:57:18;96011.44;;;16.65;85.67
51083;BME280;37131;42.694;23.350;2023-08-12T00:59:44;96008.19;;;16.58;85.92
51083;BME280;37131;42.694;23.350;2023-08-12T01:02:11;95992.75;;;16.67;83.84
51083;BME280;37131;42.694;23.350;2023-08-12T01:04:37;96005.31;;;16.60;85.42
51083;BME280;37131;42.694;23.350;2023-08-12T01:07:03;96000.91;;;16.65;84.87
51083;BME280;37131;42.694;23.350;2023-08-12T01:09:29;95984.00;;;16.61;85.17
51083;BME280;37131;42.694;23.350;2023-08-12T01:11:59;95993.72;;;16.39;88.01
51083;BME280;37131;42.694;23.350;2023-08-12T01:17:04;95999.81;;;16.44;87.31
51083;BME280;37131;42.694;23.350;2023-08-12T01:22:04;95994.13;;;16.30;88.44
51083;BME280;37131;42.694;23.350;2023-08-12T01:24:38;95992.94;;;16.04;90.26
51083;BME280;37131;42.694;23.350;2023-08-12T01:27:04;95997.97;;;16.23;90.38
51083;BME280;37131;42.694;23.350;2023-08-12T01:29:31;95970.16;;;16.10;89.71
51083;BME280;37131;42.694;23.350;2023-08-12T01:34:57;95994.44;;;16.00;92.76
51083;BME280;37131;42.694;23.350;2023-08-12T01:37:29;95993.34;;;16.13;92.01
51083;BME280;37131;42.694;23.350;2023-08-12T01:39:55;95995.56;;;16.21;91.82
51083;BME280;37131;42.694;23.350;2023-08-12T01:42:23;95960.81;;;15.68;94.29
51083;BME280;37131;42.694;23.350;2023-08-12T01:44:49;95998.81;;;15.60;95.50
51083;BME280;37131;42.694;23.350;2023-08-12T01:47:15;95990.47;;;15.81;94.90
51083;BME280;37131;42.694;23.350;2023-08-12T01:49:40;95986.97;;;16.09;93.38
51083;BME280;37131;42.694;23.350;2023-08-12T01:52:06;95994.84;;;16.09;93.51
51083;BME280;37131;42.694;23.350;2023-08-12T01:54:31;95966.09;;;15.85;93.27
51083;BME280;37131;42.694;23.350;2023-08-12T01:57:02;95993.59;;;15.94;94.02
51083;BME280;37131;42.694;23.350;2023-08-12T01:59:31;95994.22;;;16.02;93.31
51083;BME280;37131;42.694;23.350;2023-08-12T02:01:56;96001.16;;;15.91;92.68
51083;BME280;37131;42.694;23.350;2023-08-12T02:04:21;95950.75;;;15.48;93.85
51083;BME280;37131;42.694;23.350;2023-08-12T02:06:47;95994.81;;;15.75;94.71
51083;BME280;37131;42.694;23.350;2023-08-12T02:09:12;95956.09;;;15.53;94.84
51083;BME280;37131;42.694;23.350;2023-08-12T02:11:38;96003.66;;;15.69;96.26
51083;BME280;37131;42.694;23.350;2023-08-12T02:14:03;95999.19;;;15.81;95.48
51083;BME280;37131;42.694;23.350;2023-08-12T02:16:29;95991.09;;;15.71;95.83
51083;BME280;37131;42.694;23.350;2023-08-12T02:18:54;95993.78;;;15.76;93.70
51083;BME280;37131;42.694;23.350;2023-08-12T02:21:19;95992.91;;;15.70;95.82
51083;BME280;37131;42.694;23.350;2023-08-12T02:23:45;95996.66;;;15.74;95.29
51083;BME280;37131;42.694;23.350;2023-08-12T02:26:10;96000.31;;;15.56;94.78
51083;BME280;37131;42.694;23.350;2023-08-12T02:28:35;95992.84;;;15.65;93.40
51083;BME280;37131;42.694;23.350;2023-08-12T02:31:01;95987.41;;;15.72;94.08
51083;BME280;37131;42.694;23.350;2023-08-12T02:33:27;95994.41;;;15.66;94.26
51083;BME280;37131;42.694;23.350;2023-08-12T02:35:53;95982.69;;;15.40;95.74
51083;BME280;37131;42.694;23.350;2023-08-12T02:38:20;95995.00;;;15.39;97.09
51083;BME280;37131;42.694;23.350;2023-08-12T02:40:48;96000.41;;;15.33;96.83
51083;BME280;37131;42.694;23.350;2023-08-12T02:43:14;95987.41;;;15.55;94.94
51083;BME280;37131;42.694;23.350;2023-08-12T02:45:39;96004.97;;;15.54;94.78
51083;BME280;37131;42.694;23.350;2023-08-12T02:48:05;96011.81;;;15.38;96.63
51083;BME280;37131;42.694;23.350;2023-08-12T02:50:30;96008.03;;;15.05;99.39
51083;BME280;37131;42.694;23.350;2023-08-12T02:52:56;96011.56;;;15.11;100.00
51083;BME280;37131;42.694;23.350;2023-08-12T02:55:21;96013.59;;;15.21;99.85
51083;BME280;37131;42.694;23.350;2023-08-12T02:57:47;96014.25;;;15.28;99.72
51083;BME280;37131;42.694;23.350;2023-08-12T03:00:12;96015.66;;;15.19;100.00
51083;BME280;37131;42.694;23.350;2023-08-12T03:02:42;95986.88;;;14.83;100.00
51083;BME280;37131;42.694;23.350;2023-08-12T03:05:07;96014.28;;;14.76;100.00
51083;BME280;37131;42.694;23.350;2023-08-12T03:07:33;96013.72;;;14.73;100.00
51083;BME280;37131;42.694;23.350;2023-08-12T03:09:58;96027.72;;;14.79;100.00
51083;BME280;37131;42.694;23.350;2023-08-12T03:12:24;96017.00;;;14.93;100.00
51083;BME280;37131;42.694;23.350;2023-08-12T03:14:49;96022.38;;;14.86;100.00
51083;BME280;37131;42.694;23.350;2023-08-12T03:17:15;96013.72;;;14.85;100.00
51083;BME280;37131;42.694;23.350;2023-08-12T03:19:41;96021.22;;;14.94;100.00
51083;BME280;37131;42.694;23.350;2023-08-12T03:22:06;96018.59;;;14.94;100.00
51083;BME280;37131;42.694;23.350;2023-08-12T03:24:32;96024.50;;;15.01;100.00
51083;BME280;37131;42.694;23.350;2023-08-12T03:26:57;96007.75;;;14.90;100.00
51083;BME280;37131;42.694;23.350;2023-08-12T03:29:23;96019.25;;;15.01;100.00
51083;BME280;37131;42.694;23.350;2023-08-12T03:31:48;96028.69;;;15.14;100.00
51083;BME280;37131;42.694;23.350;2023-08-12T03:34:13;96027.31;;;15.11;100.00
51083;BME280;37131;42.694;23.350;2023-08-12T03:36:39;96020.50;;;14.98;100.00
51083;BME280;37131;42.694;23.350;2023-08-12T03:39:04;96035.78;;;15.01;100.00
51083;BME280;37131;42.694;23.350;2023-08-12T03:41:30;96039.00;;;15.03;100.00
51083;BME280;37131;42.694;23.350;2023-08-12T03:43:56;96027.91;;;15.01;100.00
51083;BME280;37131;42.694;23.350;2023-08-12T03:46:21;96020.59;;;15.15;100.00
51083;BME280;37131;42.694;23.350;2023-08-12T03:48:47;96033.47;;;15.17;100.00
51083;BME280;37131;42.694;23.350;2023-08-12T03:51:12;96039.47;;;15.00;100.00
51083;BME280;37131;42.694;23.350;2023-08-12T03:53:37;96033.47;;;15.17;100.00
51083;BME280;37131;42.694;23.350;2023-08-12T03:56:03;96036.44;;;14.80;100.00
51083;BME280;37131;42.694;23.350;2023-08-12T03:58:29;96029.81;;;14.77;100.00
51083;BME280;37131;42.694;23.350;2023-08-12T04:00:54;96035.94;;;14.95;100.00
51083;BME280;37131;42.694;23.350;2023-08-12T04:03:20;96028.09;;;14.71;100.00
51083;BME280;37131;42.694;23.350;2023-08-12T04:05:49;96037.81;;;14.47;100.00
51083;BME280;37131;42.694;23.350;2023-08-12T04:08:15;96039.16;;;14.73;100.00
51083;BME280;37131;42.694;23.350;2023-08-12T04:10:44;96007.09;;;14.47;100.00
51083;BME280;37131;42.694;23.350;2023-08-12T04:13:09;96037.56;;;14.60;100.00
51083;BME280;37131;42.694;23.350;2023-08-12T04:15:35;96025.81;;;14.51;100.00
51083;BME280;37131;42.694;23.350;2023-08-12T04:18:00;96043.41;;;14.62;100.00
51083;BME280;37131;42.694;23.350;2023-08-12T04:20:25;96049.81;;;14.66;100.00
51083;BME280;37131;42.694;23.350;2023-08-12T04:22:51;96038.81;;;14.81;100.00
51083;BME280;37131;42.694;23.350;2023-08-12T04:25:17;96046.09;;;14.44;100.00
51083;BME280;37131;42.694;23.350;2023-08-12T04:27:43;96044.41;;;14.73;100.00
51083;BME280;37131;42.694;23.350;2023-08-12T04:30:09;96040.44;;;14.59;100.00
51083;BME280;37131;42.694;23.350;2023-08-12T04:32:34;96041.44;;;14.81;100.00
51083;BME280;37131;42.694;23.350;2023-08-12T04:35:01;96005.88;;;14.62;100.00
51083;BME280;37131;42.694;23.350;2023-08-12T04:37:26;96045.09;;;14.80;100.00
51083;BME280;37131;42.694;23.350;2023-08-12T04:39:53;96045.75;;;14.87;100.00
51083;BME280;37131;42.694;23.350;2023-08-12T04:42:18;96050.56;;;14.90;100.00
51083;BME280;37131;42.694;23.350;2023-08-12T04:44:43;96050.53;;;15.02;100.00
51083;BME280;37131;42.694;23.350;2023-08-12T04:47:09;96051.41;;;15.20;99.14
51083;BME280;37131;42.694;23.350;2023-08-12T04:49:35;96050.00;;;15.29;96.01
51083;BME280;37131;42.694;23.350;2023-08-12T04:52:00;96041.09;;;15.30;97.16
51083;BME280;37131;42.694;23.350;2023-08-12T04:54:26;96019.94;;;15.37;95.94
51083;BME280;37131;42.694;23.350;2023-08-12T04:56:51;96042.22;;;15.34;98.33
51083;BME280;37131;42.694;23.350;2023-08-12T04:59:16;96042.94;;;15.30;95.42
51083;BME280;37131;42.694;23.350;2023-08-12T05:01:42;96049.94;;;15.70;95.80
51083;BME280;37131;42.694;23.350;2023-08-12T05:04:07;96048.06;;;15.82;96.48
51083;BME280;37131;42.694;23.350;2023-08-12T05:06:33;96056.72;;;15.94;95.84
51083;BME280;37131;42.694;23.350;2023-08-12T05:08:58;96046.25;;;15.83;93.72
51083;BME280;37131;42.694;23.350;2023-08-12T05:11:24;96049.91;;;15.99;89.01
51083;BME280;37131;42.694;23.350;2023-08-12T05:13:49;96058.28;;;15.95;90.81
51083;BME280;37131;42.694;23.350;2023-08-12T05:16:14;96050.91;;;16.09;93.05
51083;BME280;37131;42.694;23.350;2023-08-12T05:18:40;96049.16;;;16.15;89.07
51083;BME280;37131;42.694;23.350;2023-08-12T05:21:05;96053.63;;;16.31;88.51
51083;BME280;37131;42.694;23.350;2023-08-12T05:23:31;96056.69;;;16.45;88.87
51083;BME280;37131;42.694;23.350;2023-08-12T05:25:56;96057.72;;;16.61;88.90
51083;BME280;37131;42.694;23.350;2023-08-12T05:28:22;96051.81;;;16.71;87.73
51083;BME280;37131;42.694;23.350;2023-08-12T05:30:48;96059.63;;;16.66;87.05
51083;BME280;37131;42.694;23.350;2023-08-12T05:33:13;96062.94;;;16.78;87.00
51083;BME280;37131;42.694;23.350;2023-08-12T05:35:38;96050.19;;;16.70;88.73
51083;BME280;37131;42.694;23.350;2023-08-12T05:38:04;96055.03;;;16.95;83.76
51083;BME280;37131;42.694;23.350;2023-08-12T05:40:29;96059.69;;;17.10;84.34
51083;BME280;37131;42.694;23.350;2023-08-12T05:42:55;96063.97;;;17.16;83.63
51083;BME280;37131;42.694;23.350;2023-08-12T05:45:20;96066.22;;;17.30;82.28
51083;BME280;37131;42.694;23.350;2023-08-12T05:47:45;95947.03;;;16.51;81.26
51083;BME280;37131;42.694;23.350;2023-08-12T05:50:11;96065.38;;;17.02;82.06
51083;BME280;37131;42.694;23.350;2023-08-12T05:52:36;96062.44;;;16.98;84.42
51083;BME280;37131;42.694;23.350;2023-08-12T05:55:02;96020.56;;;16.80;84.77
51083;BME280;37131;42.694;23.350;2023-08-12T05:57:27;96044.25;;;16.97;86.62
51083;BME280;37131;42.694;23.350;2023-08-12T05:59:53;96055.28;;;17.16;80.22
51083;BME280;37131;42.694;23.350;2023-08-12T06:02:18;96052.25;;;17.51;77.96
51083;BME280;37131;42.694;23.350;2023-08-12T06:04:44;96058.75;;;17.44;78.53
51083;BME280;37131;42.694;23.350;2023-08-12T06:07:09;96043.06;;;17.54;78.27
51083;BME280;37131;42.694;23.350;2023-08-12T06:09:34;96043.94;;;17.65;79.37
51083;BME280;37131;42.694;23.350;2023-08-12T06:12:00;96040.94;;;17.56;79.08
51083;BME280;37131;42.694;23.350;2023-08-12T06:14:25;96041.84;;;17.67;77.14
51083;BME280;37131;42.694;23.350;2023-08-12T06:16:50;96040.13;;;17.83;77.81
51083;BME280;37131;42.694;23.350;2023-08-12T06:19:16;96041.19;;;17.82;77.49
51083;BME280;37131;42.694;23.350;2023-08-12T06:21:41;96025.56;;;18.02;74.75
51083;BME280;37131;42.694;23.350;2023-08-12T06:24:07;96030.91;;;18.13;73.68
51083;BME280;37131;42.694;23.350;2023-08-12T06:26:32;96006.56;;;17.73;74.22
51083;BME280;37131;42.694;23.350;2023-08-12T06:28:58;96037.66;;;18.31;73.50
51083;BME280;37131;42.694;23.350;2023-08-12T06:31:23;96037.09;;;18.23;74.05
51083;BME280;37131;42.694;23.350;2023-08-12T06:33:49;96022.88;;;18.30;74.53
51083;BME280;37131;42.694;23.350;2023-08-12T06:36:14;96024.13;;;18.65;73.28
51083;BME280;37131;42.694;23.350;2023-08-12T06:38:39;96021.03;;;18.78;70.88
51083;BME280;37131;42.694;23.350;2023-08-12T06:41:05;96019.81;;;18.96;68.57
51083;BME280;37131;42.694;23.350;2023-08-12T06:43:30;96013.31;;;18.66;71.04
51083;BME280;37131;42.694;23.350;2023-08-12T06:45:55;96011.53;;;18.82;70.43
51083;BME280;37131;42.694;23.350;2023-08-12T06:48:21;96009.50;;;19.00;70.06
51083;BME280;37131;42.694;23.350;2023-08-12T06:50:53;96008.28;;;19.28;67.78
51083;BME280;37131;42.694;23.350;2023-08-12T06:53:18;96008.81;;;19.25;68.92
51083;BME280;37131;42.694;23.350;2023-08-12T06:55:44;96005.13;;;19.31;67.44
51083;BME280;37131;42.694;23.350;2023-08-12T06:58:10;96015.44;;;19.38;65.01
51083;BME280;37131;42.694;23.350;2023-08-12T07:00:36;96008.59;;;19.42;66.25
51083;BME280;37131;42.694;23.350;2023-08-12T07:03:01;96004.66;;;19.65;66.11
51083;BME280;37131;42.694;23.350;2023-08-12T07:05:26;96018.94;;;19.64;64.43
51083;BME280;37131;42.694;23.350;2023-08-12T07:07:52;96011.53;;;19.66;64.13
51083;BME280;37131;42.694;23.350;2023-08-12T07:10:17;96001.19;;;19.54;66.00
51083;BME280;37131;42.694;23.350;2023-08-12T07:12:42;96003.56;;;19.45;65.23
51083;BME280;37131;42.694;23.350;2023-08-12T07:15:08;96009.16;;;19.64;63.34
51083;BME280;37131;42.694;23.350;2023-08-12T07:17:35;95992.81;;;19.83;63.99
51083;BME280;37131;42.694;23.350;2023-08-12T07:20:01;96002.00;;;19.70;62.73
51083;BME280;37131;42.694;23.350;2023-08-12T07:22:27;96001.53;;;19.99;61.32
51083;BME280;37131;42.694;23.350;2023-08-12T07:24:52;96003.63;;;20.07;62.52
51083;BME280;37131;42.694;23.350;2023-08-12T07:27:17;95998.63;;;20.11;62.44
51083;BME280;37131;42.694;23.350;2023-08-12T07:29:43;96005.75;;;20.21;58.35
51083;BME280;37131;42.694;23.350;2023-08-12T07:32:08;96001.25;;;20.31;58.31
51083;BME280;37131;42.694;23.350;2023-08-12T07:34:34;96000.66;;;20.50;56.58
51083;BME280;37131;42.694;23.350;2023-08-12T07:36:59;95987.16;;;20.41;57.55
51083;BME280;37131;42.694;23.350;2023-08-12T07:39:24;95995.69;;;20.33;58.45
51083;BME280;37131;42.694;23.350;2023-08-12T07:41:50;95990.38;;;20.38;60.22
51083;BME280;37131;42.694;23.350;2023-08-12T07:44:15;95998.81;;;20.66;58.68
51083;BME280;37131;42.694;23.350;2023-08-12T07:46:40;95992.06;;;20.94;56.50
51083;BME280;37131;42.694;23.350;2023-08-12T07:49:06;95973.50;;;20.99;56.67
51083;BME280;37131;42.694;23.350;2023-08-12T07:51:31;95974.84;;;20.92;54.70
51083;BME280;37131;42.694;23.350;2023-08-12T07:53:56;95990.66;;;21.12;55.24
51083;BME280;37131;42.694;23.350;2023-08-12T07:56:22;95984.75;;;20.71;56.56
51083;BME280;37131;42.694;23.350;2023-08-12T07:58:47;95972.91;;;21.08;56.76
51083;BME280;37131;42.694;23.350;2023-08-12T08:01:13;95972.47;;;21.40;55.54
51083;BME280;37131;42.694;23.350;2023-08-12T08:03:39;95976.44;;;21.43;56.17
51083;BME280;37131;42.694;23.350;2023-08-12T08:06:04;95975.88;;;21.51;55.30
51083;BME280;37131;42.694;23.350;2023-08-12T08:08:29;95972.84;;;21.23;54.72
51083;BME280;37131;42.694;23.350;2023-08-12T08:10:55;95975.28;;;21.14;55.96
51083;BME280;37131;42.694;23.350;2023-08-12T08:13:20;95973.03;;;21.37;54.24
51083;BME280;37131;42.694;23.350;2023-08-12T08:15:46;95967.03;;;21.66;52.34
51083;BME280;37131;42.694;23.350;2023-08-12T08:18:11;95971.63;;;21.89;52.35
51083;BME280;37131;42.694;23.350;2023-08-12T08:20:37;95967.47;;;21.78;51.47
51083;BME280;37131;42.694;23.350;2023-08-12T08:23:02;95923.38;;;21.43;50.17
51083;BME280;37131;42.694;23.350;2023-08-12T08:25:28;95961.22;;;21.98;50.55
51083;BME280;37131;42.694;23.350;2023-08-12T08:27:53;95963.75;;;22.08;50.06
51083;BME280;37131;42.694;23.350;2023-08-12T08:30:18;95954.00;;;22.28;50.10
51083;BME280;37131;42.694;23.350;2023-08-12T08:32:44;95930.38;;;22.27;49.43
51083;BME280;37131;42.694;23.350;2023-08-12T08:35:11;95941.72;;;22.37;49.21
51083;BME280;37131;42.694;23.350;2023-08-12T08:37:37;95947.84;;;22.62;49.71
51083;BME280;37131;42.694;23.350;2023-08-12T08:40:02;95953.81;;;22.73;48.44
51083;BME280;37131;42.694;23.350;2023-08-12T08:42:28;95947.22;;;22.89;48.90
51083;BME280;37131;42.694;23.350;2023-08-12T08:45:00;95912.50;;;22.81;47.90
51083;BME280;37131;42.694;23.350;2023-08-12T08:47:26;95931.19;;;23.19;45.45
51083;BME280;37131;42.694;23.350;2023-08-12T08:49:56;95941.50;;;23.01;46.17
51083;BME280;37131;42.694;23.350;2023-08-12T08:52:23;95914.25;;;22.90;47.51
51083;BME280;37131;42.694;23.350;2023-08-12T08:54:49;95913.69;;;22.93;46.95
51083;BME280;37131;42.694;23.350;2023-08-12T08:57:15;95935.19;;;23.35;45.66
51083;BME280;37131;42.694;23.350;2023-08-12T08:59:41;95930.44;;;23.51;45.50
51083;BME280;37131;42.694;23.350;2023-08-12T09:02:13;95939.59;;;23.26;46.71
51083;BME280;37131;42.694;23.350;2023-08-12T09:04:41;95936.50;;;23.38;46.25
51083;BME280;37131;42.694;23.350;2023-08-12T09:07:07;95898.38;;;23.23;47.53
51083;BME280;37131;42.694;23.350;2023-08-12T09:09:34;95918.13;;;23.55;46.79
51083;BME280;37131;42.694;23.350;2023-08-12T09:12:00;95922.63;;;23.74;44.43
51083;BME280;37131;42.694;23.350;2023-08-12T09:14:26;95892.00;;;23.57;44.76
51083;BME280;37131;42.694;23.350;2023-08-12T09:16:52;95911.88;;;23.98;45.01
51083;BME280;37131;42.694;23.350;2023-08-12T09:19:17;95909.72;;;24.14;44.46
51083;BME280;37131;42.694;23.350;2023-08-12T09:21:42;95913.38;;;23.85;44.72
51083;BME280;37131;42.694;23.350;2023-08-12T09:24:08;95904.38;;;24.00;45.42
51083;BME280;37131;42.694;23.350;2023-08-12T09:26:33;95905.66;;;24.03;44.68
51083;BME280;37131;42.694;23.350;2023-08-12T09:28:59;95909.94;;;23.85;43.39
51083;BME280;37131;42.694;23.350;2023-08-12T09:31:29;95904.09;;;23.82;44.06
51083;BME280;37131;42.694;23.350;2023-08-12T09:33:59;95898.47;;;24.17;44.38
51083;BME280;37131;42.694;23.350;2023-08-12T09:36:28;95901.16;;;23.51;44.39
51083;BME280;37131;42.694;23.350;2023-08-12T09:38:54;95894.63;;;23.76;44.54
51083;BME280;37131;42.694;23.350;2023-08-12T09:41:22;95893.03;;;24.22;43.81
51083;BME280;37131;42.694;23.350;2023-08-12T09:43:51;95881.56;;;24.08;43.05
51083;BME280;37131;42.694;23.350;2023-08-12T09:46:18;95883.47;;;24.35;43.75
51083;BME280;37131;42.694;23.350;2023-08-12T09:48:43;95881.88;;;24.76;43.35
51083;BME280;37131;42.694;23.350;2023-08-12T09:51:09;95858.19;;;24.32;43.83
51083;BME280;37131;42.694;23.350;2023-08-12T09:53:36;95872.00;;;24.76;41.61
51083;BME280;37131;42.694;23.350;2023-08-12T09:56:07;95869.28;;;25.04;42.79
51083;BME280;37131;42.694;23.350;2023-08-12T09:58:35;95856.56;;;24.87;41.08
51083;BME280;37131;42.694;23.350;2023-08-12T10:01:03;95868.59;;;25.21;42.19
51083;BME280;37131;42.694;23.350;2023-08-12T10:03:29;95861.53;;;25.39;41.67
51083;BME280;37131;42.694;23.350;2023-08-12T10:05:56;95845.88;;;25.24;41.73
51083;BME280;37131;42.694;23.350;2023-08-12T10:08:21;95852.28;;;25.36;41.18
51083;BME280;37131;42.694;23.350;2023-08-12T10:10:48;95811.44;;;25.13;40.75
51083;BME280;37131;42.694;23.350;2023-08-12T10:13:14;95858.00;;;25.52;40.96
51083;BME280;37131;42.694;23.350;2023-08-12T10:15:40;95830.38;;;25.48;41.33
51083;BME280;37131;42.694;23.350;2023-08-12T10:18:07;95852.81;;;25.79;40.41
51083;BME280;37131;42.694;23.350;2023-08-12T10:20:34;95846.19;;;25.45;41.30
51083;BME280;37131;42.694;23.350;2023-08-12T10:23:00;95831.56;;;24.60;41.75
51083;BME280;37131;42.694;23.350;2023-08-12T10:25:31;95826.28;;;24.55;40.21
51083;BME280;37131;42.694;23.350;2023-08-12T10:27:57;95820.59;;;24.98;39.18
51083;BME280;37131;42.694;23.350;2023-08-12T10:30:22;95809.56;;;24.77;40.02
51083;BME280;37131;42.694;23.350;2023-08-12T10:32:48;95827.72;;;24.25;42.09
51083;BME280;37131;42.694;23.350;2023-08-12T10:35:13;95852.75;;;24.79;42.16
51083;BME280;37131;42.694;23.350;2023-08-12T10:37:39;95846.13;;;24.49;41.56
51083;BME280;37131;42.694;23.350;2023-08-12T10:40:05;95843.06;;;24.69;41.20
51083;BME280;37131;42.694;23.350;2023-08-12T10:42:40;95839.44;;;25.02;39.53
51083;BME280;37131;42.694;23.350;2023-08-12T10:45:07;95827.75;;;25.12;39.86
51083;BME280;37131;42.694;23.350;2023-08-12T10:47:37;95821.44;;;25.30;39.61
51083;BME280;37131;42.694;23.350;2023-08-12T10:50:03;95828.59;;;25.21;38.46
51083;BME280;37131;42.694;23.350;2023-08-12T10:52:31;95810.19;;;25.65;38.53
51083;BME280;37131;42.694;23.350;2023-08-12T10:55:20;95810.94;;;25.97;37.96
51083;BME280;37131;42.694;23.350;2023-08-12T10:57:46;95807.88;;;26.03;36.07
51083;BME280;37131;42.694;23.350;2023-08-12T11:00:19;95807.38;;;26.01;36.51
51083;BME280;37131;42.694;23.350;2023-08-12T11:03:06;95802.31;;;25.91;36.26
51083;BME280;37131;42.694;23.350;2023-08-12T11:05:38;95804.50;;;26.47;36.58
51083;BME280;37131;42.694;23.350;2023-08-12T11:08:05;95801.19;;;26.50;35.86
51083;BME280;37131;42.694;23.350;2023-08-12T11:10:32;95797.91;;;26.61;36.98
51083;BME280;37131;42.694;23.350;2023-08-12T11:12:59;95798.34;;;26.37;37.13
51083;BME280;37131;42.694;23.350;2023-08-12T11:15:35;95797.91;;;26.35;36.03
51083;BME280;37131;42.694;23.350;2023-08-12T11:18:07;95792.69;;;26.30;37.22
51083;BME280;37131;42.694;23.350;2023-08-12T11:20:33;95790.59;;;26.18;36.63
51083;BME280;37131;42.694;23.350;2023-08-12T11:23:00;95788.84;;;26.05;35.64
51083;BME280;37131;42.694;23.350;2023-08-12T11:25:28;95793.16;;;25.92;35.81
51083;BME280;37131;42.694;23.350;2023-08-12T11:27:54;95789.56;;;25.97;37.05
51083;BME280;37131;42.694;23.350;2023-08-12T11:30:20;95794.03;;;25.70;37.34
51083;BME280;37131;42.694;23.350;2023-08-12T11:32:48;95789.31;;;25.13;37.45
51083;BME280;37131;42.694;23.350;2023-08-12T11:35:15;95787.75;;;25.74;35.68
51083;BME280;37131;42.694;23.350;2023-08-12T11:37:42;95781.81;;;26.18;34.54
51083;BME280;37131;42.694;23.350;2023-08-12T11:40:10;95779.59;;;26.11;33.81
51083;BME280;37131;42.694;23.350;2023-08-12T11:42:37;95784.16;;;26.11;35.02
51083;BME280;37131;42.694;23.350;2023-08-12T11:45:06;95779.63;;;26.29;34.92
51083;BME280;37131;42.694;23.350;2023-08-12T11:47:35;95768.16;;;26.54;35.88
51083;BME280;37131;42.694;23.350;2023-08-12T11:50:09;95766.63;;;26.79;34.77
51083;BME280;37131;42.694;23.350;2023-08-12T11:52:36;95760.03;;;26.86;33.61
51083;BME280;37131;42.694;23.350;2023-08-12T11:55:02;95758.28;;;26.99;33.08
51083;BME280;37131;42.694;23.350;2023-08-12T11:57:27;95765.06;;;26.78;33.10
51083;BME280;37131;42.694;23.350;2023-08-12T12:00:14;95762.22;;;26.92;34.04
51083;BME280;37131;42.694;23.350;2023-08-12T12:02:45;95760.97;;;27.63;33.15
51083;BME280;37131;42.694;23.350;2023-08-12T12:05:11;95764.53;;;27.29;33.35
51083;BME280;37131;42.694;23.350;2023-08-12T12:07:37;95763.25;;;27.26;34.14
51083;BME280;37131;42.694;23.350;2023-08-12T12:10:04;95760.44;;;27.23;34.16
51083;BME280;37131;42.694;23.350;2023-08-12T12:12:33;95753.97;;;27.41;35.89
51083;BME280;37131;42.694;23.350;2023-08-12T12:14:58;95762.84;;;27.72;33.96
51083;BME280;37131;42.694;23.350;2023-08-12T12:17:24;95749.97;;;27.56;34.10
51083;BME280;37131;42.694;23.350;2023-08-12T12:19:55;95744.53;;;27.74;34.33
51083;BME280;37131;42.694;23.350;2023-08-12T12:22:26;95754.13;;;27.36;34.32
51083;BME280;37131;42.694;23.350;2023-08-12T12:24:53;95743.56;;;27.40;34.09
51083;BME280;37131;42.694;23.350;2023-08-12T12:27:18;95747.97;;;27.44;34.43
51083;BME280;37131;42.694;23.350;2023-08-12T12:29:43;95750.28;;;27.55;35.81
51083;BME280;37131;42.694;23.350;2023-08-12T12:32:10;95752.13;;;27.07;35.04
51083;BME280;37131;42.694;23.350;2023-08-12T12:34:35;95746.47;;;27.00;35.41
51083;BME280;37131;42.694;23.350;2023-08-12T12:37:00;95752.31;;;26.67;35.81
51083;BME280;37131;42.694;23.350;2023-08-12T12:39:26;95724.44;;;26.24;36.30
51083;BME280;37131;42.694;23.350;2023-08-12T12:41:52;95742.53;;;26.36;37.44
51083;BME280;37131;42.694;23.350;2023-08-12T12:44:17;95742.34;;;26.23;36.41
51083;BME280;37131;42.694;23.350;2023-08-12T12:46:43;95744.53;;;25.64;36.52
51083;BME280;37131;42.694;23.350;2023-08-12T12:49:08;95746.19;;;25.51;36.13
51083;BME280;37131;42.694;23.350;2023-08-12T12:51:33;95739.13;;;25.95;37.45